sensor_id;sensor_type;location;lat;lon;timestamp;P1;durP1;ratioP1;P2;durP2;ratioP2
51174;SDS011;37240;50.104;20.010;2022-11-20T00:01:48;129.95;;;48.88;;
51174;SDS011;37240;50.104;20.010;2022-11-20T00:06:49;130.52;;;50.05;;
51174;SDS011;37240;50.104;20.010;2022-11-20T00:11:49;143.00;;;51.75;;
51174;SDS011;37240;50.104;20.010;2022-11-20T00:16:50;123.20;;;47.92;;
51174;SDS011;37240;50.104;20.010;2022-11-20T00:21:50;135.88;;;46.35;;
51174;SDS011;37240;50.104;20.010;2022-11-20T00:26:51;138.15;;;48.05;;
51174;SDS011;37240;50.104;20.010;2022-11-20T00:31:51;129.65;;;47.65;;
51174;SDS011;37240;50.104;20.010;2022-11-20T00:36:52;123.82;;;46.97;;
51174;SDS011;37240;50.104;20.010;2022-11-20T00:41:52;132.43;;;50.22;;
51174;SDS011;37240;50.104;20.010;2022-11-20T00:46:53;129.57;;;48.15;;
51174;SDS011;37240;50.104;20.010;2022-11-20T00:51:53;133.25;;;47.92;;
51174;SDS011;37240;50.104;20.010;2022-11-20T00:56:54;116.22;;;45.00;;
51174;SDS011;37240;50.104;20.010;2022-11-20T01:01:54;126.22;;;47.00;;
51174;SDS011;37240;50.104;20.010;2022-11-20T01:06:55;132.13;;;47.60;;
51174;SDS011;37240;50.104;20.010;2022-11-20T01:11:55;126.65;;;46.55;;
51174;SDS011;37240;50.104;20.010;2022-11-20T01:16:56;125.65;;;47.25;;
51174;SDS011;37240;50.104;20.010;2022-11-20T01:21:56;118.55;;;46.47;;
51174;SDS011;37240;50.104;20.010;2022-11-20T01:26:57;122.38;;;46.30;;
51174;SDS011;37240;50.104;20.010;2022-11-20T01:31:57;129.10;;;47.38;;
51174;SDS011;37240;50.104;20.010;2022-11-20T01:36:58;119.57;;;48.90;;
51174;SDS011;37240;50.104;20.010;2022-11-20T01:41:58;115.75;;;45.55;;
51174;SDS011;37240;50.104;20.010;2022-11-20T01:46:59;138.55;;;47.67;;
51174;SDS011;37240;50.104;20.010;2022-11-20T01:52:07;126.93;;;48.25;;
51174;SDS011;37240;50.104;20.010;2022-11-20T01:57:12;146.75;;;53.30;;
51174;SDS011;37240;50.104;20.010;2022-11-20T02:02:14;135.68;;;51.47;;
51174;SDS011;37240;50.104;20.010;2022-11-20T02:07:14;138.98;;;48.63;;
51174;SDS011;37240;50.104;20.010;2022-11-20T02:12:16;136.13;;;47.72;;
51174;SDS011;37240;50.104;20.010;2022-11-20T02:17:17;142.45;;;54.72;;
51174;SDS011;37240;50.104;20.010;2022-11-20T02:22:19;136.02;;;52.03;;
51174;SDS011;37240;50.104;20.010;2022-11-20T02:27:30;148.85;;;60.83;;
51174;SDS011;37240;50.104;20.010;2022-11-20T02:32:32;150.80;;;55.08;;
51174;SDS011;37240;50.104;20.010;2022-11-20T02:37:34;145.65;;;54.15;;
51174;SDS011;37240;50.104;20.010;2022-11-20T02:42:38;147.73;;;56.67;;
51174;SDS011;37240;50.104;20.010;2022-11-20T02:47:39;160.45;;;55.88;;
51174;SDS011;37240;50.104;20.010;2022-11-20T02:52:40;160.48;;;54.40;;
51174;SDS011;37240;50.104;20.010;2022-11-20T02:57:40;152.43;;;51.92;;
51174;SDS011;37240;50.104;20.010;2022-11-20T03:02:41;145.52;;;53.50;;
51174;SDS011;37240;50.104;20.010;2022-11-20T03:07:42;138.98;;;50.67;;
51174;SDS011;37240;50.104;20.010;2022-11-20T03:12:43;148.10;;;52.33;;
51174;SDS011;37240;50.104;20.010;2022-11-20T03:17:44;165.52;;;55.85;;
51174;SDS011;37240;50.104;20.010;2022-11-20T03:22:44;145.95;;;54.10;;
51174;SDS011;37240;50.104;20.010;2022-11-20T03:27:45;160.18;;;56.28;;
51174;SDS011;37240;50.104;20.010;2022-11-20T03:32:45;153.43;;;55.63;;
51174;SDS011;37240;50.104;20.010;2022-11-20T03:37:46;149.65;;;54.22;;
51174;SDS011;37240;50.104;20.010;2022-11-20T03:42:46;160.13;;;55.58;;
51174;SDS011;37240;50.104;20.010;2022-11-20T03:47:47;149.48;;;55.88;;
51174;SDS011;37240;50.104;20.010;2022-11-20T03:52:47;143.98;;;56.20;;
51174;SDS011;37240;50.104;20.010;2022-11-20T03:57:48;145.57;;;54.88;;
51174;SDS011;37240;50.104;20.010;2022-11-20T04:02:48;149.90;;;57.47;;
51174;SDS011;37240;50.104;20.010;2022-11-20T04:07:49;142.98;;;50.88;;
51174;SDS011;37240;50.104;20.010;2022-11-20T04:12:49;144.98;;;51.33;;
51174;SDS011;37240;50.104;20.010;2022-11-20T04:17:50;151.30;;;53.92;;
51174;SDS011;37240;50.104;20.010;2022-11-20T04:22:52;154.10;;;53.33;;
51174;SDS011;37240;50.104;20.010;2022-11-20T04:27:53;152.45;;;54.90;;
51174;SDS011;37240;50.104;20.010;2022-11-20T04:32:54;140.32;;;54.20;;
51174;SDS011;37240;50.104;20.010;2022-11-20T04:37:55;154.20;;;51.10;;
51174;SDS011;37240;50.104;20.010;2022-11-20T04:42:55;159.60;;;51.10;;
51174;SDS011;37240;50.104;20.010;2022-11-20T04:47:56;147.38;;;52.63;;
51174;SDS011;37240;50.104;20.010;2022-11-20T04:52:56;150.50;;;52.58;;
51174;SDS011;37240;50.104;20.010;2022-11-20T04:57:57;142.27;;;51.25;;
51174;SDS011;37240;50.104;20.010;2022-11-20T05:02:57;145.25;;;53.53;;
51174;SDS011;37240;50.104;20.010;2022-11-20T05:07:58;150.35;;;54.08;;
51174;SDS011;37240;50.104;20.010;2022-11-20T05:12:59;135.20;;;50.58;;
51174;SDS011;37240;50.104;20.010;2022-11-20T05:17:59;153.70;;;53.92;;
51174;SDS011;37240;50.104;20.010;2022-11-20T05:23:00;146.50;;;53.92;;
51174;SDS011;37240;50.104;20.010;2022-11-20T05:28:00;152.70;;;56.10;;
51174;SDS011;37240;50.104;20.010;2022-11-20T05:33:01;143.52;;;53.47;;
51174;SDS011;37240;50.104;20.010;2022-11-20T05:38:01;139.68;;;51.88;;
51174;SDS011;37240;50.104;20.010;2022-11-20T05:43:02;139.52;;;50.80;;
51174;SDS011;37240;50.104;20.010;2022-11-20T05:48:02;145.32;;;53.90;;
51174;SDS011;37240;50.104;20.010;2022-11-20T05:53:03;146.20;;;51.38;;
51174;SDS011;37240;50.104;20.010;2022-11-20T05:58:04;148.40;;;53.80;;
51174;SDS011;37240;50.104;20.010;2022-11-20T06:03:04;140.38;;;51.53;;
51174;SDS011;37240;50.104;20.010;2022-11-20T06:08:04;153.90;;;53.45;;
51174;SDS011;37240;50.104;20.010;2022-11-20T06:13:05;157.40;;;56.58;;
51174;SDS011;37240;50.104;20.010;2022-11-20T06:18:05;144.05;;;53.17;;
51174;SDS011;37240;50.104;20.010;2022-11-20T06:23:06;138.85;;;52.08;;
51174;SDS011;37240;50.104;20.010;2022-11-20T06:28:07;156.98;;;55.38;;
51174;SDS011;37240;50.104;20.010;2022-11-20T06:33:07;128.63;;;50.00;;
51174;SDS011;37240;50.104;20.010;2022-11-20T06:38:08;141.07;;;49.33;;
51174;SDS011;37240;50.104;20.010;2022-11-20T06:43:11;141.68;;;52.15;;
51174;SDS011;37240;50.104;20.010;2022-11-20T06:48:11;147.05;;;55.08;;
51174;SDS011;37240;50.104;20.010;2022-11-20T06:53:12;149.23;;;54.38;;
51174;SDS011;37240;50.104;20.010;2022-11-20T06:58:13;146.60;;;52.83;;
51174;SDS011;37240;50.104;20.010;2022-11-20T07:03:15;144.63;;;52.90;;
51174;SDS011;37240;50.104;20.010;2022-11-20T07:08:15;153.27;;;51.33;;
51174;SDS011;37240;50.104;20.010;2022-11-20T07:13:16;140.93;;;51.55;;
51174;SDS011;37240;50.104;20.010;2022-11-20T07:18:16;144.05;;;53.67;;
51174;SDS011;37240;50.104;20.010;2022-11-20T07:23:17;151.25;;;56.67;;
51174;SDS011;37240;50.104;20.010;2022-11-20T07:28:17;150.55;;;57.08;;
51174;SDS011;37240;50.104;20.010;2022-11-20T07:33:18;157.38;;;61.65;;
51174;SDS011;37240;50.104;20.010;2022-11-20T07:38:19;162.80;;;59.70;;
51174;SDS011;37240;50.104;20.010;2022-11-20T07:43:19;163.80;;;57.70;;
51174;SDS011;37240;50.104;20.010;2022-11-20T07:48:20;160.63;;;59.63;;
51174;SDS011;37240;50.104;20.010;2022-11-20T07:53:20;173.05;;;59.30;;
51174;SDS011;37240;50.104;20.010;2022-11-20T07:58:21;167.65;;;58.47;;
51174;SDS011;37240;50.104;20.010;2022-11-20T08:03:22;169.00;;;62.50;;
51174;SDS011;37240;50.104;20.010;2022-11-20T08:08:22;172.30;;;63.00;;
51174;SDS011;37240;50.104;20.010;2022-11-20T08:13:22;171.63;;;62.47;;
51174;SDS011;37240;50.104;20.010;2022-11-20T08:18:23;187.30;;;65.38;;
51174;SDS011;37240;50.104;20.010;2022-11-20T08:23:23;179.15;;;62.60;;
51174;SDS011;37240;50.104;20.010;2022-11-20T08:28:24;169.38;;;63.17;;
51174;SDS011;37240;50.104;20.010;2022-11-20T08:33:24;170.60;;;62.85;;
51174;SDS011;37240;50.104;20.010;2022-11-20T08:38:25;205.25;;;74.68;;
51174;SDS011;37240;50.104;20.010;2022-11-20T08:43:25;185.07;;;69.47;;
51174;SDS011;37240;50.104;20.010;2022-11-20T08:48:26;185.10;;;64.32;;
51174;SDS011;37240;50.104;20.010;2022-11-20T08:53:27;176.52;;;66.45;;
51174;SDS011;37240;50.104;20.010;2022-11-20T08:58:27;166.40;;;59.95;;
51174;SDS011;37240;50.104;20.010;2022-11-20T09:03:28;183.25;;;63.65;;
51174;SDS011;37240;50.104;20.010;2022-11-20T09:08:28;177.93;;;62.88;;
51174;SDS011;37240;50.104;20.010;2022-11-20T09:13:30;167.43;;;56.90;;
51174;SDS011;37240;50.104;20.010;2022-11-20T09:18:31;173.63;;;63.15;;
51174;SDS011;37240;50.104;20.010;2022-11-20T09:23:33;172.90;;;60.03;;
51174;SDS011;37240;50.104;20.010;2022-11-20T09:28:34;195.25;;;65.03;;
51174;SDS011;37240;50.104;20.010;2022-11-20T09:33:35;192.75;;;68.15;;
51174;SDS011;37240;50.104;20.010;2022-11-20T09:38:36;206.27;;;70.60;;
51174;SDS011;37240;50.104;20.010;2022-11-20T09:43:56;191.77;;;68.88;;
51174;SDS011;37240;50.104;20.010;2022-11-20T09:49:15;190.50;;;67.60;;
51174;SDS011;37240;50.104;20.010;2022-11-20T09:54:33;167.43;;;61.30;;
51174;SDS011;37240;50.104;20.010;2022-11-20T10:04:36;169.65;;;65.28;;
51174;SDS011;37240;50.104;20.010;2022-11-20T10:10:03;168.00;;;59.40;;
51174;SDS011;37240;50.104;20.010;2022-11-20T10:20:22;174.15;;;59.80;;
51174;SDS011;37240;50.104;20.010;2022-11-20T10:25:39;184.35;;;63.38;;
51174;SDS011;37240;50.104;20.010;2022-11-20T10:30:45;152.63;;;58.35;;
51174;SDS011;37240;50.104;20.010;2022-11-20T10:41:26;158.65;;;59.42;;
51174;SDS011;37240;50.104;20.010;2022-11-20T10:46:36;178.88;;;63.63;;
51174;SDS011;37240;50.104;20.010;2022-11-20T10:51:56;174.93;;;64.18;;
51174;SDS011;37240;50.104;20.010;2022-11-20T10:57:35;171.75;;;62.67;;
51174;SDS011;37240;50.104;20.010;2022-11-20T11:02:42;160.93;;;60.28;;
51174;SDS011;37240;50.104;20.010;2022-11-20T11:07:47;170.85;;;63.15;;
51174;SDS011;37240;50.104;20.010;2022-11-20T11:12:50;179.10;;;63.97;;
51174;SDS011;37240;50.104;20.010;2022-11-20T11:17:51;190.90;;;70.38;;
51174;SDS011;37240;50.104;20.010;2022-11-20T11:22:53;178.43;;;65.93;;
51174;SDS011;37240;50.104;20.010;2022-11-20T11:27:58;165.98;;;57.78;;
51174;SDS011;37240;50.104;20.010;2022-11-20T11:38:32;176.13;;;62.42;;
51174;SDS011;37240;50.104;20.010;2022-11-20T11:43:39;167.20;;;60.60;;
51174;SDS011;37240;50.104;20.010;2022-11-20T11:48:39;172.18;;;61.17;;
51174;SDS011;37240;50.104;20.010;2022-11-20T11:53:40;164.38;;;63.35;;
51174;SDS011;37240;50.104;20.010;2022-11-20T11:58:48;149.93;;;56.50;;
51174;SDS011;37240;50.104;20.010;2022-11-20T12:04:00;151.52;;;57.83;;
51174;SDS011;37240;50.104;20.010;2022-11-20T12:09:09;144.40;;;55.33;;
51174;SDS011;37240;50.104;20.010;2022-11-20T12:14:19;155.52;;;60.30;;
51174;SDS011;37240;50.104;20.010;2022-11-20T12:30:09;158.27;;;54.38;;
51174;SDS011;37240;50.104;20.010;2022-11-20T12:40:27;139.75;;;52.72;;
51174;SDS011;37240;50.104;20.010;2022-11-20T12:45:41;141.18;;;55.35;;
51174;SDS011;37240;50.104;20.010;2022-11-20T13:06:30;130.77;;;50.97;;
51174;SDS011;37240;50.104;20.010;2022-11-20T13:11:40;169.07;;;58.90;;
51174;SDS011;37240;50.104;20.010;2022-11-20T13:17:24;162.40;;;57.38;;
51174;SDS011;37240;50.104;20.010;2022-11-20T13:22:47;154.73;;;57.38;;
51174;SDS011;37240;50.104;20.010;2022-11-20T13:27:49;163.35;;;58.80;;
51174;SDS011;37240;50.104;20.010;2022-11-20T13:32:50;150.80;;;59.58;;
51174;SDS011;37240;50.104;20.010;2022-11-20T13:48:19;162.52;;;61.53;;
51174;SDS011;37240;50.104;20.010;2022-11-20T13:58:40;155.30;;;59.50;;
51174;SDS011;37240;50.104;20.010;2022-11-20T14:03:52;168.95;;;62.22;;
51174;SDS011;37240;50.104;20.010;2022-11-20T14:08:53;170.07;;;59.67;;
51174;SDS011;37240;50.104;20.010;2022-11-20T14:19:17;147.13;;;55.42;;
51174;SDS011;37240;50.104;20.010;2022-11-20T14:24:23;159.07;;;59.40;;
51174;SDS011;37240;50.104;20.010;2022-11-20T14:29:28;164.00;;;59.35;;
51174;SDS011;37240;50.104;20.010;2022-11-20T14:34:35;156.90;;;56.97;;
51174;SDS011;37240;50.104;20.010;2022-11-20T14:39:42;170.43;;;62.70;;
51174;SDS011;37240;50.104;20.010;2022-11-20T14:44:48;166.82;;;62.10;;
51174;SDS011;37240;50.104;20.010;2022-11-20T14:49:51;169.88;;;61.75;;
51174;SDS011;37240;50.104;20.010;2022-11-20T14:54:54;188.75;;;65.32;;
51174;SDS011;37240;50.104;20.010;2022-11-20T15:00:06;187.45;;;65.85;;
51174;SDS011;37240;50.104;20.010;2022-11-20T15:10:48;209.93;;;75.07;;
51174;SDS011;37240;50.104;20.010;2022-11-20T15:15:51;206.35;;;75.70;;
51174;SDS011;37240;50.104;20.010;2022-11-20T15:20:54;205.02;;;71.72;;
51174;SDS011;37240;50.104;20.010;2022-11-20T15:26:00;188.77;;;69.07;;
51174;SDS011;37240;50.104;20.010;2022-11-20T15:31:01;193.07;;;73.22;;
51174;SDS011;37240;50.104;20.010;2022-11-20T15:36:02;209.15;;;73.47;;
51174;SDS011;37240;50.104;20.010;2022-11-20T15:41:02;195.18;;;73.45;;
51174;SDS011;37240;50.104;20.010;2022-11-20T15:46:05;195.52;;;71.80;;
51174;SDS011;37240;50.104;20.010;2022-11-20T15:56:17;199.40;;;71.82;;
51174;SDS011;37240;50.104;20.010;2022-11-20T16:01:19;186.55;;;67.15;;
51174;SDS011;37240;50.104;20.010;2022-11-20T16:06:22;177.98;;;64.13;;
51174;SDS011;37240;50.104;20.010;2022-11-20T16:11:22;195.35;;;69.85;;
51174;SDS011;37240;50.104;20.010;2022-11-20T16:16:24;176.02;;;68.28;;
51174;SDS011;37240;50.104;20.010;2022-11-20T16:21:27;191.00;;;65.68;;
51174;SDS011;37240;50.104;20.010;2022-11-20T16:26:28;188.55;;;71.68;;
51174;SDS011;37240;50.104;20.010;2022-11-20T16:31:29;194.57;;;70.32;;
51174;SDS011;37240;50.104;20.010;2022-11-20T16:36:30;194.23;;;68.88;;
51174;SDS011;37240;50.104;20.010;2022-11-20T16:41:31;189.18;;;72.10;;
51174;SDS011;37240;50.104;20.010;2022-11-20T16:46:34;197.38;;;73.25;;
51174;SDS011;37240;50.104;20.010;2022-11-20T16:51:34;179.55;;;69.13;;
51174;SDS011;37240;50.104;20.010;2022-11-20T16:56:35;188.52;;;70.07;;
51174;SDS011;37240;50.104;20.010;2022-11-20T17:01:36;193.75;;;70.82;;
51174;SDS011;37240;50.104;20.010;2022-11-20T17:06:37;192.70;;;67.53;;
51174;SDS011;37240;50.104;20.010;2022-11-20T17:11:40;180.52;;;69.30;;
51174;SDS011;37240;50.104;20.010;2022-11-20T17:16:41;186.93;;;69.63;;
51174;SDS011;37240;50.104;20.010;2022-11-20T17:21:42;188.90;;;70.68;;
51174;SDS011;37240;50.104;20.010;2022-11-20T17:26:43;198.93;;;72.18;;
51174;SDS011;37240;50.104;20.010;2022-11-20T17:31:44;186.57;;;69.35;;
51174;SDS011;37240;50.104;20.010;2022-11-20T17:36:45;188.80;;;74.05;;
51174;SDS011;37240;50.104;20.010;2022-11-20T17:41:45;187.50;;;66.88;;
51174;SDS011;37240;50.104;20.010;2022-11-20T17:46:46;202.18;;;71.88;;
51174;SDS011;37240;50.104;20.010;2022-11-20T17:51:46;232.32;;;74.38;;
51174;SDS011;37240;50.104;20.010;2022-11-20T17:56:47;199.10;;;70.38;;
51174;SDS011;37240;50.104;20.010;2022-11-20T18:01:47;192.60;;;69.43;;
51174;SDS011;37240;50.104;20.010;2022-11-20T18:06:48;205.02;;;72.65;;
51174;SDS011;37240;50.104;20.010;2022-11-20T18:11:48;183.23;;;65.85;;
51174;SDS011;37240;50.104;20.010;2022-11-20T18:16:55;200.02;;;67.57;;
51174;SDS011;37240;50.104;20.010;2022-11-20T18:21:57;190.77;;;66.65;;
51174;SDS011;37240;50.104;20.010;2022-11-20T18:26:58;188.63;;;69.00;;
51174;SDS011;37240;50.104;20.010;2022-11-20T18:31:59;176.00;;;65.93;;
51174;SDS011;37240;50.104;20.010;2022-11-20T18:37:00;197.10;;;68.53;;
51174;SDS011;37240;50.104;20.010;2022-11-20T18:42:00;195.38;;;70.93;;
51174;SDS011;37240;50.104;20.010;2022-11-20T18:47:01;200.85;;;71.55;;
51174;SDS011;37240;50.104;20.010;2022-11-20T18:52:02;201.98;;;72.55;;
51174;SDS011;37240;50.104;20.010;2022-11-20T18:57:03;206.25;;;68.93;;
51174;SDS011;37240;50.104;20.010;2022-11-20T19:02:04;210.00;;;74.75;;
51174;SDS011;37240;50.104;20.010;2022-11-20T19:07:05;214.25;;;76.82;;
51174;SDS011;37240;50.104;20.010;2022-11-20T19:12:07;226.45;;;75.60;;
51174;SDS011;37240;50.104;20.010;2022-11-20T19:17:08;227.65;;;80.32;;
51174;SDS011;37240;50.104;20.010;2022-11-20T19:22:09;224.05;;;77.95;;
51174;SDS011;37240;50.104;20.010;2022-11-20T19:27:09;229.50;;;78.82;;
51174;SDS011;37240;50.104;20.010;2022-11-20T19:32:10;241.23;;;79.38;;
51174;SDS011;37240;50.104;20.010;2022-11-20T19:37:10;227.85;;;77.97;;
51174;SDS011;37240;50.104;20.010;2022-11-20T19:42:11;242.52;;;83.72;;
51174;SDS011;37240;50.104;20.010;2022-11-20T19:47:11;245.45;;;83.75;;
51174;SDS011;37240;50.104;20.010;2022-11-20T19:52:12;240.13;;;84.43;;
51174;SDS011;37240;50.104;20.010;2022-11-20T19:57:12;236.70;;;79.57;;
51174;SDS011;37240;50.104;20.010;2022-11-20T20:02:13;230.25;;;84.43;;
51174;SDS011;37240;50.104;20.010;2022-11-20T20:07:13;259.17;;;85.20;;
51174;SDS011;37240;50.104;20.010;2022-11-20T20:12:14;264.42;;;87.32;;
51174;SDS011;37240;50.104;20.010;2022-11-20T20:17:14;242.07;;;85.25;;
51174;SDS011;37240;50.104;20.010;2022-11-20T20:22:14;234.02;;;82.20;;
51174;SDS011;37240;50.104;20.010;2022-11-20T20:27:15;222.75;;;80.50;;
51174;SDS011;37240;50.104;20.010;2022-11-20T20:32:15;221.63;;;78.97;;
51174;SDS011;37240;50.104;20.010;2022-11-20T20:37:16;223.38;;;80.68;;
51174;SDS011;37240;50.104;20.010;2022-11-20T20:42:16;218.10;;;78.25;;
51174;SDS011;37240;50.104;20.010;2022-11-20T20:47:17;225.27;;;78.72;;
51174;SDS011;37240;50.104;20.010;2022-11-20T20:52:17;218.57;;;81.03;;
51174;SDS011;37240;50.104;20.010;2022-11-20T20:57:18;244.93;;;84.00;;
51174;SDS011;37240;50.104;20.010;2022-11-20T21:02:21;218.63;;;79.35;;
51174;SDS011;37240;50.104;20.010;2022-11-20T21:07:21;219.25;;;78.50;;
51174;SDS011;37240;50.104;20.010;2022-11-20T21:12:22;227.02;;;77.22;;
51174;SDS011;37240;50.104;20.010;2022-11-20T21:17:22;233.77;;;78.50;;
51174;SDS011;37240;50.104;20.010;2022-11-20T21:22:23;219.15;;;77.28;;
51174;SDS011;37240;50.104;20.010;2022-11-20T21:27:23;224.27;;;80.68;;
51174;SDS011;37240;50.104;20.010;2022-11-20T21:32:24;217.18;;;77.90;;
51174;SDS011;37240;50.104;20.010;2022-11-20T21:37:24;212.50;;;80.03;;
51174;SDS011;37240;50.104;20.010;2022-11-20T21:42:25;224.20;;;80.40;;
51174;SDS011;37240;50.104;20.010;2022-11-20T21:47:26;233.00;;;83.88;;
51174;SDS011;37240;50.104;20.010;2022-11-20T21:52:26;223.00;;;77.78;;
51174;SDS011;37240;50.104;20.010;2022-11-20T21:57:27;217.27;;;77.70;;
51174;SDS011;37240;50.104;20.010;2022-11-20T22:02:27;211.18;;;77.45;;
51174;SDS011;37240;50.104;20.010;2022-11-20T22:07:27;204.63;;;75.07;;
51174;SDS011;37240;50.104;20.010;2022-11-20T22:12:28;204.02;;;77.15;;
51174;SDS011;37240;50.104;20.010;2022-11-20T22:17:28;206.73;;;72.45;;
51174;SDS011;37240;50.104;20.010;2022-11-20T22:22:29;201.48;;;72.68;;
51174;SDS011;37240;50.104;20.010;2022-11-20T22:27:29;209.55;;;75.35;;
51174;SDS011;37240;50.104;20.010;2022-11-20T22:32:30;205.90;;;75.28;;
51174;SDS011;37240;50.104;20.010;2022-11-20T22:37:31;201.30;;;74.35;;
51174;SDS011;37240;50.104;20.010;2022-11-20T22:42:31;207.57;;;73.90;;
51174;SDS011;37240;50.104;20.010;2022-11-20T22:47:32;208.98;;;76.70;;
51174;SDS011;37240;50.104;20.010;2022-11-20T22:52:32;198.50;;;74.85;;
51174;SDS011;37240;50.104;20.010;2022-11-20T22:57:33;226.75;;;81.20;;
51174;SDS011;37240;50.104;20.010;2022-11-20T23:02:33;232.15;;;80.30;;
51174;SDS011;37240;50.104;20.010;2022-11-20T23:07:34;218.18;;;79.68;;
51174;SDS011;37240;50.104;20.010;2022-11-20T23:12:34;211.80;;;76.22;;
51174;SDS011;37240;50.104;20.010;2022-11-20T23:17:35;206.38;;;77.03;;
51174;SDS011;37240;50.104;20.010;2022-11-20T23:22:35;217.63;;;80.72;;
51174;SDS011;37240;50.104;20.010;2022-11-20T23:27:36;204.93;;;79.93;;
51174;SDS011;37240;50.104;20.010;2022-11-20T23:32:36;203.02;;;80.35;;
51174;SDS011;37240;50.104;20.010;2022-11-20T23:37:37;220.27;;;82.93;;
51174;SDS011;37240;50.104;20.010;2022-11-20T23:42:37;223.18;;;83.82;;
51174;SDS011;37240;50.104;20.010;2022-11-20T23:47:38;221.13;;;83.00;;
51174;SDS011;37240;50.104;20.010;2022-11-20T23:52:38;209.30;;;79.38;;
51174;SDS011;37240;50.104;20.010;2022-11-20T23:57:39;228.13;;;81.95;;
